Time;durP1;ratioP1;P1;durP2;ratioP2;P2;SDS_P1;SDS_P2;PMS_P1;PMS_P2;Temp;Humidity;BMP_temperature;BMP_pressure;BME280_temperature;BME280_humidity;BME280_pressure;Samples;Min_cycle;Max_cycle;Signal;HPM_P1;HPM_P2
2023/10/13 00:01:38;;;;;;;6.55;5.40;;;19.10;99.90;;;;;;933757;149;27308;-80
2023/10/13 00:04:05;;;;;;;7.03;5.72;;;19.00;99.90;;;;;;935142;149;27445;-80
2023/10/13 00:06:31;;;;;;;5.92;5.33;;;19.00;99.90;;;;;;934135;149;27906;-81
2023/10/13 00:08:58;;;;;;;5.35;4.85;;;19.00;99.90;;;;;;933187;149;27403;-82
2023/10/13 00:11:26;;;;;;;6.53;5.00;;;19.00;99.90;;;;;;933141;149;27402;-80
2023/10/13 00:13:52;;;;;;;5.78;5.10;;;19.00;99.90;;;;;;933589;149;27370;-80
2023/10/13 00:16:21;;;;;;;5.37;4.58;;;19.00;99.90;;;;;;933859;149;27412;-81
2023/10/13 00:18:44;;;;;;;6.65;5.05;;;19.00;99.90;;;;;;932918;149;27363;-80
2023/10/13 00:21:15;;;;;;;5.65;4.45;;;19.00;99.90;;;;;;933900;149;27337;-80
2023/10/13 00:23:52;;;;;;;8.18;5.72;;;18.90;99.90;;;;;;934971;149;27476;-80
2023/10/13 00:26:09;;;;;;;6.20;5.60;;;18.90;99.90;;;;;;931744;149;27351;-80
2023/10/13 00:28:43;;;;;;;7.80;5.22;;;18.90;99.90;;;;;;933882;149;27436;-81
2023/10/13 00:31:10;;;;;;;6.47;4.97;;;18.80;99.90;;;;;;933199;149;27929;-80
2023/10/13 00:33:32;;;;;;;9.33;5.28;;;18.80;99.90;;;;;;932835;149;27362;-80
2023/10/13 00:35:58;;;;;;;7.12;5.50;;;18.80;99.90;;;;;;933858;149;27362;-81
2023/10/13 00:38:23;;;;;;;7.00;4.58;;;18.80;99.90;;;;;;934077;149;27322;-81
2023/10/13 00:40:52;;;;;;;6.28;5.03;;;18.80;99.90;;;;;;934714;149;27390;-80
2023/10/13 00:48:32;;;;;;;5.55;4.87;;;18.80;99.90;;;;;;934444;149;27419;-80
2023/10/13 00:50:56;;;;;;;6.75;5.45;;;18.90;99.90;;;;;;933414;149;27346;-78
2023/10/13 00:53:23;;;;;;;6.37;5.08;;;18.90;99.90;;;;;;950136;147;27403;-81
2023/10/13 00:55:49;;;;;;;5.97;4.42;;;18.90;99.90;;;;;;952365;148;27432;-81
2023/10/13 00:58:21;;;;;;;5.22;4.60;;;18.90;99.90;;;;;;952917;148;27317;-81
2023/10/13 01:00:48;;;;;;;5.70;4.80;;;18.90;99.90;;;;;;952287;149;27302;-81
2023/10/13 01:03:14;;;;;;;6.85;5.12;;;18.90;99.90;;;;;;952646;148;27307;-80
2023/10/13 01:05:41;;;;;;;7.28;5.35;;;18.90;99.90;;;;;;953397;148;27439;-80
2023/10/13 01:08:11;;;;;;;6.67;4.62;;;19.00;99.90;;;;;;951378;150;27420;-78
2023/10/13 01:10:37;;;;;;;5.50;4.87;;;19.00;99.90;;;;;;952599;150;27329;-77
2023/10/13 01:13:04;;;;;;;5.40;4.47;;;19.00;99.90;;;;;;952578;150;27328;-74
2023/10/13 01:15:30;;;;;;;5.35;4.60;;;19.00;99.90;;;;;;951875;148;27297;-75
2023/10/13 01:17:56;;;;;;;4.70;4.20;;;19.00;99.90;;;;;;952774;148;27317;-76
2023/10/13 01:20:21;;;;;;;6.42;5.15;;;19.10;99.90;;;;;;952669;150;27323;-74
2023/10/13 01:22:55;;;;;;;6.80;4.78;;;19.10;99.90;;;;;;951906;149;27417;-77
2023/10/13 01:25:19;;;;;;;6.65;4.62;;;19.10;99.90;;;;;;951789;150;27372;-75
2023/10/13 01:27:48;;;;;;;7.78;5.40;;;19.10;99.90;;;;;;953042;149;27257;-75
2023/10/13 01:30:13;;;;;;;7.25;5.37;;;19.10;99.90;;;;;;952212;148;27336;-74
2023/10/13 01:32:45;;;;;;;7.92;5.10;;;19.10;99.90;;;;;;951582;148;27328;-76
2023/10/13 01:35:06;;;;;;;6.80;4.97;;;19.10;99.90;;;;;;952357;149;27356;-76
2023/10/13 01:37:32;;;;;;;6.03;4.95;;;19.10;99.90;;;;;;952483;149;27309;-77
2023/10/13 01:39:59;;;;;;;6.33;4.87;;;19.10;99.90;;;;;;953217;148;27312;-74
2023/10/13 01:42:25;;;;;;;5.50;4.90;;;19.10;99.90;;;;;;952461;148;28145;-75
2023/10/13 01:44:57;;;;;;;7.05;4.53;;;19.10;99.90;;;;;;952384;150;27307;-75
2023/10/13 01:47:22;;;;;;;8.50;4.97;;;19.10;99.90;;;;;;951639;148;27381;-74
2023/10/13 01:49:50;;;;;;;6.58;4.90;;;19.00;99.90;;;;;;952528;148;27284;-77
2023/10/13 01:52:17;;;;;;;5.85;4.72;;;19.00;99.90;;;;;;952732;148;27408;-76
2023/10/13 01:54:44;;;;;;;6.40;4.35;;;19.00;99.90;;;;;;952371;149;27455;-74
2023/10/13 01:57:14;;;;;;;8.00;5.03;;;19.00;99.90;;;;;;952691;148;27352;-74
2023/10/13 01:59:49;;;;;;;5.28;4.53;;;19.00;99.90;;;;;;952603;149;27429;-75
2023/10/13 02:02:20;;;;;;;5.25;4.72;;;19.00;99.90;;;;;;953486;148;27352;-74
2023/10/13 02:04:57;;;;;;;5.58;4.40;;;19.00;99.90;;;;;;952323;150;27394;-75
2023/10/13 02:07:17;;;;;;;5.67;4.40;;;19.00;99.90;;;;;;951081;148;27344;-76
2023/10/13 02:09:44;;;;;;;4.78;4.22;;;19.00;99.90;;;;;;952791;150;27367;-75
2023/10/13 02:12:10;;;;;;;5.08;4.58;;;19.00;99.90;;;;;;952185;149;27393;-75
2023/10/13 02:14:38;;;;;;;5.15;4.65;;;19.00;99.90;;;;;;953489;149;27460;-74
2023/10/13 02:17:12;;;;;;;7.30;4.85;;;19.10;99.90;;;;;;952892;148;27336;-74
2023/10/13 02:19:45;;;;;;;6.83;4.78;;;19.10;99.90;;;;;;952653;148;27361;-74
2023/10/13 02:22:09;;;;;;;6.85;5.05;;;19.10;99.90;;;;;;952203;150;27368;-76
2023/10/13 02:24:39;;;;;;;7.40;4.33;;;19.10;99.90;;;;;;952815;149;27309;-78
2023/10/13 02:27:04;;;;;;;6.33;5.08;;;19.20;99.90;;;;;;952761;149;27450;-74
2023/10/13 02:29:28;;;;;;;7.50;4.87;;;19.20;99.90;;;;;;951624;148;27424;-74
2023/10/13 02:31:55;;;;;;;6.37;5.10;;;19.20;99.90;;;;;;953045;148;27438;-74
2023/10/13 02:34:23;;;;;;;7.05;4.80;;;19.20;99.90;;;;;;952382;148;27380;-74
2023/10/13 02:36:51;;;;;;;5.15;4.65;;;19.30;99.90;;;;;;951658;148;27352;-78
2023/10/13 02:39:15;;;;;;;6.00;4.72;;;19.30;99.90;;;;;;951687;148;27329;-78
2023/10/13 02:41:45;;;;;;;6.08;4.80;;;19.30;99.90;;;;;;951759;150;27332;-74
2023/10/13 02:44:08;;;;;;;7.42;5.05;;;19.30;99.90;;;;;;953027;149;27329;-75
2023/10/13 02:46:36;;;;;;;5.90;4.37;;;19.30;99.90;;;;;;952143;149;27330;-74
2023/10/13 02:49:02;;;;;;;5.70;4.83;;;19.30;99.90;;;;;;952396;149;27389;-75
2023/10/13 02:51:35;;;;;;;6.60;5.25;;;19.40;99.90;;;;;;952126;148;27367;-78
2023/10/13 02:54:02;;;;;;;4.92;4.33;;;19.40;99.90;;;;;;955624;149;27383;-74
2023/10/13 02:56:26;;;;;;;6.75;4.75;;;19.40;99.90;;;;;;957619;148;27439;-74
2023/10/13 02:59:04;;;;;;;7.03;4.60;;;19.40;99.90;;;;;;956733;147;27335;-75
2023/10/13 03:01:28;;;;;;;8.10;5.20;;;19.40;99.90;;;;;;956218;149;27443;-75
2023/10/13 03:03:54;;;;;;;5.67;4.60;;;19.40;99.90;;;;;;957134;147;27331;-77
2023/10/13 03:06:32;;;;;;;4.92;3.98;;;19.40;99.90;;;;;;957544;149;27339;-75
2023/10/13 03:09:13;;;;;;;7.87;4.53;;;19.40;99.90;;;;;;957296;149;27388;-75
2023/10/13 03:11:25;;;;;;;5.50;5.00;;;19.40;99.90;;;;;;955884;146;27272;-75
2023/10/13 03:13:52;;;;;;;6.12;4.95;;;19.40;99.90;;;;;;957549;149;27327;-78
2023/10/13 03:16:19;;;;;;;6.03;4.40;;;19.40;99.90;;;;;;957911;149;27333;-75
2023/10/13 03:18:53;;;;;;;6.72;4.42;;;19.30;99.90;;;;;;958507;147;27409;-76
2023/10/13 03:21:13;;;;;;;7.60;4.67;;;19.30;99.90;;;;;;954163;149;27347;-78
2023/10/13 03:23:45;;;;;;;6.97;5.05;;;19.20;99.90;;;;;;957037;147;27312;-76
2023/10/13 03:26:08;;;;;;;7.10;5.40;;;19.20;99.90;;;;;;956297;148;27356;-75
2023/10/13 03:28:33;;;;;;;6.22;5.22;;;19.20;99.90;;;;;;956467;148;27416;-81
2023/10/13 03:31:01;;;;;;;5.90;4.92;;;19.20;99.90;;;;;;956617;149;27251;-81
2023/10/13 03:33:27;;;;;;;7.25;4.83;;;19.20;99.90;;;;;;957410;149;27299;-79
2023/10/13 03:35:54;;;;;;;9.25;4.95;;;19.10;99.90;;;;;;957459;148;27362;-79
2023/10/13 03:38:26;;;;;;;6.62;5.03;;;19.10;99.90;;;;;;958170;148;27432;-80
2023/10/13 03:40:56;;;;;;;6.25;4.72;;;19.10;99.90;;;;;;957666;149;27431;-80
2023/10/13 03:43:21;;;;;;;8.65;4.80;;;19.10;99.90;;;;;;957687;149;27357;-80
2023/10/13 03:45:48;;;;;;;8.60;5.17;;;19.10;99.90;;;;;;956555;147;27359;-80
2023/10/13 03:51:14;;;;;;;11.57;5.37;;;19.10;99.90;;;;;;957932;149;27903;-79
2023/10/13 03:53:34;;;;;;;5.95;5.37;;;19.10;99.90;;;;;;958612;147;27490;-80
2023/10/13 03:58:38;;;;;;;5.20;4.70;;;19.10;99.90;;;;;;942280;147;27261;-80
2023/10/13 04:01:03;;;;;;;7.58;4.72;;;19.00;99.90;;;;;;968830;147;27697;-79
2023/10/13 04:03:36;;;;;;;5.20;4.60;;;19.00;99.90;;;;;;969704;147;27345;-79
2023/10/13 04:06:06;;;;;;;5.97;4.92;;;19.00;99.90;;;;;;968253;147;27281;-79
2023/10/13 04:17:13;;;;;;;5.62;5.10;;;19.00;99.90;;;;;;969384;147;27392;-79
2023/10/13 04:29:46;;;;;;;7.33;5.05;;;19.00;99.90;;;;;;968799;147;27350;-78
2023/10/13 04:32:00;;;;;;;6.10;4.22;;;19.00;99.90;;;;;;965202;147;27349;-80
2023/10/13 04:34:34;;;;;;;7.65;4.95;;;18.90;99.90;;;;;;969023;147;27426;-80
2023/10/13 04:36:57;;;;;;;5.53;4.50;;;18.90;99.90;;;;;;967236;147;27368;-79
2023/10/13 04:39:29;;;;;;;6.35;4.40;;;18.90;99.90;;;;;;968176;147;27399;-76
2023/10/13 04:47:07;;;;;;;5.10;4.60;;;18.90;99.90;;;;;;969548;147;27428;-79
2023/10/13 04:49:49;;;;;;;5.62;4.35;;;18.90;99.90;;;;;;967086;147;27302;-79
2023/10/13 04:57:46;;;;;;;6.28;4.50;;;18.90;99.90;;;;;;959661;149;27334;-80
2023/10/13 05:48:15;;;;;;;7.95;4.50;;;19.20;99.90;;;;;;959764;149;27364;-79
2023/10/13 06:28:56;;;;;;;8.38;4.90;;;19.40;99.90;;;;;;945054;149;27353;-76
2023/10/13 06:31:22;;;;;;;7.55;4.50;;;19.50;99.90;;;;;;964310;145;27325;-76
2023/10/13 06:33:49;;;;;;;6.05;5.40;;;19.60;99.90;;;;;;943829;149;27461;-76
2023/10/13 06:36:17;;;;;;;7.67;4.67;;;19.70;99.90;;;;;;963897;146;27343;-76
2023/10/13 06:38:42;;;;;;;5.83;4.28;;;19.80;99.90;;;;;;944697;149;27739;-76
2023/10/13 06:41:08;;;;;;;6.10;5.08;;;20.00;99.90;;;;;;947169;148;27385;-76
2023/10/13 06:43:43;;;;;;;6.58;4.30;;;20.10;99.90;;;;;;962948;146;27350;-76
2023/10/13 06:46:14;;;;;;;6.15;4.58;;;20.20;99.90;;;;;;956367;147;27359;-76
2023/10/13 06:48:34;;;;;;;9.78;4.67;;;20.40;99.90;;;;;;963046;145;27414;-76
2023/10/13 06:51:06;;;;;;;5.15;3.92;;;20.50;99.90;;;;;;946276;149;27306;-76
2023/10/13 06:53:29;;;;;;;7.53;4.28;;;20.70;99.90;;;;;;963153;146;27339;-76
2023/10/13 06:55:58;;;;;;;6.87;4.92;;;20.90;99.90;;;;;;958853;146;27333;-76
2023/10/13 06:58:23;;;;;;;6.70;3.85;;;21.20;99.90;;;;;;950593;147;27243;-75
2023/10/13 07:00:58;;;;;;;5.87;4.30;;;21.40;99.90;;;;;;951372;147;27336;-77
2023/10/13 07:03:25;;;;;;;6.53;4.17;;;21.60;99.90;;;;;;927710;151;27804;-73
2023/10/13 07:05:52;;;;;;;5.45;3.37;;;21.80;99.90;;;;;;948480;148;27383;-74
2023/10/13 07:08:19;;;;;;;7.00;3.92;;;22.00;99.90;;;;;;946921;148;27357;-73
2023/10/13 07:13:49;;;;;;;4.40;3.60;;;22.40;99.90;;;;;;946430;147;27952;-77
2023/10/13 07:16:07;;;;;;;3.55;3.22;;;22.60;99.90;;;;;;941420;147;27388;-74
2023/10/13 07:18:35;;;;;;;5.20;3.58;;;22.80;99.90;;;;;;950493;147;27435;-76
2023/10/13 07:20:57;;;;;;;5.12;3.47;;;23.00;99.90;;;;;;934944;150;27328;-75
2023/10/13 07:23:24;;;;;;;4.62;3.85;;;23.30;99.90;;;;;;944643;147;27382;-74
2023/10/13 07:25:51;;;;;;;6.72;3.90;;;23.70;99.90;;;;;;943951;147;27429;-73
2023/10/13 07:28:18;;;;;;;5.80;3.90;;;24.00;99.90;;;;;;944881;148;27487;-75
2023/10/13 07:33:22;;;;;;;5.80;3.22;;;24.90;99.90;;;;;;935600;149;27340;-73
2023/10/13 07:35:50;;;;;;;5.65;3.25;;;25.30;99.90;;;;;;941170;148;27380;-77
2023/10/13 07:38:16;;;;;;;4.90;3.40;;;25.80;99.90;;;;;;931396;150;27463;-77
2023/10/13 07:40:42;;;;;;;6.05;3.50;;;26.30;99.90;;;;;;925524;150;27450;-73
2023/10/13 07:43:12;;;;;;;6.85;3.05;;;26.80;99.90;;;;;;925896;150;27472;-75
2023/10/13 07:45:38;;;;;;;6.75;3.35;;;27.30;99.90;;;;;;943286;148;27368;-75
2023/10/13 07:48:25;;;;;;;6.10;3.02;;;27.70;99.90;;;;;;944810;147;26345;-75
2023/10/13 07:51:01;;;;;;;8.23;3.22;;;28.00;98.00;;;;;;926042;150;27389;-75
2023/10/13 07:53:28;;;;;;;4.17;3.33;;;28.40;95.70;;;;;;942731;147;27299;-73
2023/10/13 07:56:02;;;;;;;4.75;3.10;;;28.70;95.10;;;;;;942549;147;27783;-74
2023/10/13 07:58:27;;;;;;;4.78;3.25;;;29.00;94.60;;;;;;925373;150;27403;-75
2023/10/13 08:03:35;;;;;;;6.35;3.25;;;29.70;92.20;;;;;;938012;150;27432;-75
2023/10/13 08:06:04;;;;;;;4.78;3.00;;;30.00;90.40;;;;;;925439;151;27463;-73
2023/10/13 08:08:50;;;;;;;5.22;3.20;;;30.30;89.90;;;;;;934727;150;27352;-75
2023/10/13 08:10:55;;;;;;;6.10;3.10;;;30.60;87.40;;;;;;935167;148;27444;-76
2023/10/13 08:13:20;;;;;;;4.30;2.67;;;30.80;83.50;;;;;;936168;150;27414;-76
2023/10/13 08:15:47;;;;;;;4.62;3.00;;;31.10;81.60;;;;;;931123;149;27389;-76
2023/10/13 08:18:17;;;;;;;5.55;3.17;;;31.20;80.10;;;;;;933212;150;28035;-76
2023/10/13 08:20:38;;;;;;;3.52;2.62;;;31.40;78.70;;;;;;930206;149;27355;-76
2023/10/13 08:23:13;;;;;;;4.58;3.02;;;31.60;78.40;;;;;;932945;149;27389;-76
2023/10/13 08:28:46;;;;;;;3.92;3.12;;;31.90;75.10;;;;;;921065;147;27342;-76
2023/10/13 08:30:36;;;;;;;8.35;3.45;;;32.00;74.10;;;;;;955773;147;27462;-76
2023/10/13 08:33:04;;;;;;;5.00;3.42;;;32.20;73.70;;;;;;930995;150;26816;-76
2023/10/13 08:35:33;;;;;;;5.87;2.92;;;32.50;73.70;;;;;;942728;149;27494;-76
2023/10/13 08:38:04;;;;;;;3.92;3.02;;;32.80;73.50;;;;;;948352;147;27937;-76
2023/10/13 08:48:12;;;;;;;5.45;3.08;;;34.10;68.90;;;;;;949453;147;26199;-77
2023/10/13 08:56:05;;;;;;;5.37;2.85;;;34.20;63.50;;;;;;950372;147;27294;-76
2023/10/13 08:59:05;;;;;;;5.15;2.98;;;34.10;63.70;;;;;;940721;149;27531;-76
2023/10/13 09:00:56;;;;;;;4.80;2.80;;;34.00;63.70;;;;;;932865;150;26350;-76
2023/10/13 09:03:28;;;;;;;6.87;2.90;;;34.00;63.90;;;;;;939188;149;27476;-76
2023/10/13 09:06:06;;;;;;;4.37;2.62;;;34.20;63.50;;;;;;942383;149;26363;-76
2023/10/13 09:08:44;;;;;;;4.10;2.95;;;34.30;63.70;;;;;;930769;149;26306;-76
2023/10/13 09:11:12;;;;;;;3.67;3.25;;;34.50;63.20;;;;;;931222;149;26420;-76
2023/10/13 09:13:44;;;;;;;5.85;3.10;;;34.70;62.10;;;;;;926978;150;26420;-76
2023/10/13 09:16:16;;;;;;;4.85;3.22;;;34.80;61.20;;;;;;941291;148;26261;-76
2023/10/13 09:18:46;;;;;;;7.00;3.15;;;34.90;60.20;;;;;;942510;147;26301;-76
2023/10/13 09:24:15;;;;;;;4.85;2.83;;;34.90;58.80;;;;;;933663;150;26322;-76
2023/10/13 09:26:21;;;;;;;3.65;2.55;;;34.80;58.40;;;;;;930492;150;26290;-76
2023/10/13 09:28:51;;;;;;;3.52;2.65;;;34.70;57.50;;;;;;946612;147;26255;-76
2023/10/13 09:31:15;;;;;;;10.15;3.22;;;34.60;57.40;;;;;;925354;150;27788;-76
2023/10/13 09:33:50;;;;;;;5.58;3.02;;;34.40;57.00;;;;;;924446;150;26296;-76
2023/10/13 09:36:07;;;;;;;5.30;3.08;;;34.20;56.80;;;;;;944512;148;26272;-76
2023/10/13 09:38:33;;;;;;;5.22;2.90;;;34.10;56.30;;;;;;941882;148;26300;-76
2023/10/13 09:41:17;;;;;;;7.12;3.10;;;33.90;56.20;;;;;;923724;150;27409;-76
2023/10/13 09:43:30;;;;;;;4.65;3.15;;;33.60;56.00;;;;;;934693;150;27409;-76
2023/10/13 09:46:02;;;;;;;4.03;2.80;;;33.40;56.00;;;;;;924506;151;27314;-76
2023/10/13 09:48:34;;;;;;;4.17;3.08;;;33.20;55.70;;;;;;925698;151;27458;-77
2023/10/13 09:51:01;;;;;;;3.45;3.08;;;32.90;55.70;;;;;;925792;150;27397;-76
2023/10/13 09:53:29;;;;;;;3.87;3.25;;;32.70;55.60;;;;;;927407;150;27415;-76
2023/10/13 09:55:55;;;;;;;3.83;3.37;;;32.50;55.80;;;;;;941808;148;27373;-76
2023/10/13 09:58:28;;;;;;;3.10;2.80;;;32.30;55.80;;;;;;946213;147;27357;-76
2023/10/13 10:00:49;;;;;;;4.03;3.22;;;32.10;56.10;;;;;;925579;150;27449;-76
2023/10/13 10:08:34;;;;;;;3.08;2.85;;;31.60;55.60;;;;;;911525;150;27384;-76
2023/10/13 10:11:20;;;;;;;5.53;3.85;;;31.40;55.50;;;;;;941770;147;27309;-76
2023/10/13 10:13:53;;;;;;;3.90;3.42;;;31.20;55.40;;;;;;928857;150;27396;-76
2023/10/13 10:16:19;;;;;;;6.58;3.60;;;31.00;55.20;;;;;;943148;148;27462;-76
2023/10/13 10:18:41;;;;;;;5.15;3.83;;;30.90;55.30;;;;;;943928;150;27333;-76
2023/10/13 10:21:09;;;;;;;3.72;3.33;;;30.70;55.50;;;;;;945413;148;27457;-76
2023/10/13 10:23:43;;;;;;;6.50;3.62;;;30.60;55.40;;;;;;945164;148;26235;-76
2023/10/13 10:26:13;;;;;;;5.25;3.27;;;30.50;55.60;;;;;;927320;151;27928;-76
2023/10/13 10:28:36;;;;;;;3.55;3.25;;;30.40;55.30;;;;;;929208;151;27496;-76
2023/10/13 10:31:17;;;;;;;4.15;3.47;;;30.30;55.40;;;;;;929935;151;27366;-76
2023/10/13 10:33:33;;;;;;;7.00;3.02;;;30.20;55.60;;;;;;928629;151;27374;-76
2023/10/13 10:35:59;;;;;;;5.20;3.45;;;30.20;55.90;;;;;;930572;151;27378;-76
2023/10/13 10:38:33;;;;;;;3.10;2.80;;;30.10;55.90;;;;;;930705;151;27376;-76
2023/10/13 10:40:57;;;;;;;4.87;3.40;;;30.10;56.00;;;;;;929833;151;27499;-76
2023/10/13 10:43:48;;;;;;;5.37;3.02;;;30.10;55.80;;;;;;934063;151;27561;-76
2023/10/13 10:46:37;;;;;;;5.97;3.20;;;30.10;55.80;;;;;;928720;151;27404;-76
2023/10/13 10:49:01;;;;;;;6.72;3.87;;;30.20;55.90;;;;;;923129;151;27379;-76
2023/10/13 10:51:43;;;;;;;3.60;3.30;;;30.20;55.70;;;;;;929225;151;26273;-76
2023/10/13 10:53:56;;;;;;;3.95;3.20;;;30.20;55.60;;;;;;942673;150;27368;-76
2023/10/13 10:56:36;;;;;;;7.17;4.00;;;30.10;55.40;;;;;;944827;150;27807;-76
2023/10/13 10:58:54;;;;;;;4.72;3.25;;;30.10;55.30;;;;;;942840;148;27351;-76
2023/10/13 11:01:20;;;;;;;4.87;2.80;;;30.10;55.20;;;;;;939475;149;27330;-76
2023/10/13 11:03:59;;;;;;;5.47;3.00;;;30.10;55.30;;;;;;933016;151;27406;-76
2023/10/13 11:06:28;;;;;;;4.55;3.62;;;30.10;55.30;;;;;;928254;151;28087;-76
2023/10/13 11:09:19;;;;;;;3.12;2.80;;;30.00;55.20;;;;;;936072;151;26330;-76
2023/10/13 11:11:45;;;;;;;4.62;3.20;;;30.00;55.50;;;;;;935749;151;27459;-76
2023/10/13 11:14:17;;;;;;;4.50;3.08;;;30.00;55.60;;;;;;944386;149;26302;-76
2023/10/13 11:16:50;;;;;;;3.80;3.02;;;29.90;55.30;;;;;;928633;151;26254;-76
2023/10/13 11:19:13;;;;;;;4.08;3.08;;;30.00;55.40;;;;;;930794;151;27502;-76
2023/10/13 11:21:40;;;;;;;4.60;3.25;;;30.00;55.30;;;;;;948168;148;27450;-76
2023/10/13 11:24:10;;;;;;;6.53;3.33;;;30.00;55.20;;;;;;938639;149;26683;-76
2023/10/13 11:26:57;;;;;;;4.65;3.27;;;30.00;55.20;;;;;;933407;151;27367;-76
2023/10/13 11:29:10;;;;;;;5.22;2.98;;;30.10;55.10;;;;;;929439;151;27460;-76
2023/10/13 11:31:29;;;;;;;4.58;3.22;;;30.10;55.30;;;;;;931035;151;27311;-74
2023/10/13 11:33:56;;;;;;;4.85;3.27;;;30.10;55.20;;;;;;946064;148;26198;-76
2023/10/13 11:36:25;;;;;;;3.67;2.98;;;30.10;55.10;;;;;;927046;151;26273;-73
2023/10/13 11:41:15;;;;;;;3.37;3.08;;;30.10;54.90;;;;;;931466;151;27412;-76
2023/10/13 11:49:06;;;;;;;4.17;2.98;;;29.90;54.60;;;;;;929588;151;27529;-77
2023/10/13 11:51:31;;;;;;;6.15;3.80;;;29.90;54.50;;;;;;929722;151;27392;-77
2023/10/13 11:53:55;;;;;;;3.62;2.75;;;29.70;54.20;;;;;;935714;151;27335;-77
2023/10/13 11:56:21;;;;;;;3.70;3.00;;;29.60;54.30;;;;;;947849;148;26356;-76
2023/10/13 11:58:48;;;;;;;3.85;2.72;;;29.60;54.30;;;;;;929762;151;27374;-76
2023/10/13 12:09:31;;;;;;;5.92;3.47;;;29.40;54.50;;;;;;931213;151;27415;-76
2023/10/13 12:11:41;;;;;;;2.90;2.70;;;29.40;54.40;;;;;;929467;151;27806;-76
2023/10/13 12:14:19;;;;;;;3.35;2.77;;;29.50;54.50;;;;;;930188;151;27374;-76
2023/10/13 12:16:48;;;;;;;5.65;3.12;;;29.50;54.20;;;;;;927493;151;27398;-77
2023/10/13 12:19:11;;;;;;;3.27;2.90;;;29.50;54.10;;;;;;929875;151;27421;-76
2023/10/13 12:21:37;;;;;;;4.97;3.45;;;29.60;53.90;;;;;;948824;147;27330;-77
2023/10/13 12:24:11;;;;;;;5.28;3.40;;;29.60;53.60;;;;;;948848;147;27356;-77
2023/10/13 12:26:33;;;;;;;5.95;3.58;;;29.50;53.50;;;;;;946466;147;27366;-77
2023/10/13 12:29:17;;;;;;;3.55;3.25;;;29.50;53.50;;;;;;946881;148;27352;-76
2023/10/13 12:31:32;;;;;;;5.20;2.98;;;29.50;53.40;;;;;;947223;148;27388;-77
2023/10/13 12:34:06;;;;;;;4.78;3.33;;;29.50;53.40;;;;;;947800;148;27367;-77
2023/10/13 12:36:31;;;;;;;10.25;3.10;;;29.50;53.20;;;;;;945822;148;27435;-77
2023/10/13 12:52:18;;;;;;;6.12;3.52;;;29.50;52.90;;;;;;931783;151;27475;-77
2023/10/13 12:54:47;;;;;;;5.28;3.55;;;29.50;52.80;;;;;;947684;147;27417;-76
2023/10/13 12:57:10;;;;;;;3.87;3.15;;;29.50;52.60;;;;;;935619;150;27328;-77
2023/10/13 12:59:38;;;;;;;7.30;2.75;;;29.50;52.60;;;;;;935367;149;27384;-76
2023/10/13 13:02:07;;;;;;;3.08;2.77;;;29.50;52.60;;;;;;928530;149;27456;-77
2023/10/13 13:04:36;;;;;;;4.50;3.35;;;29.60;52.60;;;;;;933483;150;27327;-76
2023/10/13 13:06:56;;;;;;;3.50;2.67;;;29.60;52.70;;;;;;942597;147;27335;-77
2023/10/13 13:09:28;;;;;;;3.65;3.15;;;29.60;52.30;;;;;;933242;150;26287;-76
2023/10/13 13:11:58;;;;;;;6.60;3.20;;;29.70;52.30;;;;;;947480;147;27466;-77
2023/10/13 13:14:30;;;;;;;7.83;3.27;;;29.80;52.10;;;;;;947840;147;27409;-77
2023/10/13 13:17:15;;;;;;;3.65;2.85;;;29.80;52.00;;;;;;947294;148;27492;-76
2023/10/13 13:19:26;;;;;;;4.90;2.90;;;29.90;52.10;;;;;;942227;147;27385;-77
2023/10/13 13:21:53;;;;;;;5.05;3.62;;;29.90;51.80;;;;;;933596;151;27362;-77
2023/10/13 13:24:20;;;;;;;3.87;3.40;;;29.90;51.80;;;;;;930249;150;27365;-76
2023/10/13 13:26:48;;;;;;;4.60;3.40;;;29.90;51.60;;;;;;946501;148;27338;-77
2023/10/13 13:29:13;;;;;;;5.10;3.00;;;29.90;51.30;;;;;;949804;148;27418;-77
2023/10/13 13:31:43;;;;;;;3.05;2.70;;;29.90;51.20;;;;;;947948;148;27407;-76
2023/10/13 13:34:12;;;;;;;6.87;3.45;;;29.90;51.10;;;;;;946375;148;27315;-77
2023/10/13 13:36:38;;;;;;;3.33;3.02;;;29.90;51.10;;;;;;936697;149;27365;-77
2023/10/13 13:39:06;;;;;;;3.92;3.10;;;29.90;51.10;;;;;;948850;148;27283;-77
2023/10/13 13:41:33;;;;;;;3.55;2.75;;;29.90;51.10;;;;;;928004;151;27465;-76
2023/10/13 13:44:01;;;;;;;2.92;2.58;;;29.80;50.90;;;;;;931324;151;27473;-76
2023/10/13 13:46:29;;;;;;;5.35;3.10;;;29.80;50.90;;;;;;930460;151;27279;-77
2023/10/13 13:49:00;;;;;;;3.65;3.17;;;29.70;50.90;;;;;;944669;148;27404;-76
2023/10/13 13:51:29;;;;;;;5.50;2.90;;;29.70;51.00;;;;;;944597;148;27430;-76
2023/10/13 13:53:55;;;;;;;4.78;2.95;;;29.60;50.90;;;;;;943833;148;27342;-77
2023/10/13 13:56:25;;;;;;;3.22;2.90;;;29.50;51.00;;;;;;943811;148;27373;-77
2023/10/13 13:58:49;;;;;;;6.53;3.30;;;29.40;51.10;;;;;;944285;148;27405;-76
2023/10/13 14:01:15;;;;;;;3.15;2.75;;;29.40;51.20;;;;;;944545;148;27294;-77
2023/10/13 14:03:47;;;;;;;4.47;3.35;;;29.30;51.30;;;;;;944201;148;27345;-77
2023/10/13 14:06:22;;;;;;;6.45;3.02;;;29.30;51.50;;;;;;943793;148;27490;-77
2023/10/13 14:08:44;;;;;;;3.50;3.20;;;29.20;51.40;;;;;;946302;148;27408;-76
2023/10/13 14:11:13;;;;;;;3.85;2.60;;;29.20;51.50;;;;;;947801;147;27412;-77
2023/10/13 14:13:49;;;;;;;5.58;3.08;;;29.20;51.60;;;;;;946225;147;27418;-76
2023/10/13 14:16:22;;;;;;;4.37;2.98;;;29.20;51.60;;;;;;947134;148;27400;-77
2023/10/13 14:18:47;;;;;;;6.60;3.10;;;29.20;51.60;;;;;;944614;148;27448;-77
2023/10/13 14:21:19;;;;;;;4.80;2.77;;;29.20;51.60;;;;;;926876;151;27344;-77
2023/10/13 14:23:46;;;;;;;3.47;3.12;;;29.20;51.50;;;;;;945018;149;27388;-77
2023/10/13 14:26:12;;;;;;;3.30;2.55;;;29.20;51.50;;;;;;944765;149;27409;-77
2023/10/13 14:28:50;;;;;;;3.33;2.62;;;29.30;51.60;;;;;;945029;149;27316;-76
2023/10/13 14:31:09;;;;;;;4.33;3.00;;;29.30;51.50;;;;;;927282;151;27362;-77
2023/10/13 14:33:36;;;;;;;4.75;2.98;;;29.40;51.50;;;;;;942051;149;27291;-77
2023/10/13 14:36:04;;;;;;;4.10;3.10;;;29.40;51.40;;;;;;930480;151;27364;-77
2023/10/13 14:38:28;;;;;;;6.25;3.25;;;29.40;51.30;;;;;;942831;148;27335;-77
2023/10/13 14:40:58;;;;;;;4.30;3.00;;;29.40;51.90;;;;;;944756;150;27380;-77
2023/10/13 14:43:27;;;;;;;4.85;2.80;;;29.40;51.30;;;;;;938591;151;27367;-77
2023/10/13 14:45:50;;;;;;;4.67;3.30;;;29.40;51.20;;;;;;939376;151;27346;-77
2023/10/13 14:48:17;;;;;;;4.75;3.00;;;29.40;51.10;;;;;;926732;153;27871;-77
2023/10/13 14:50:45;;;;;;;4.70;2.90;;;29.30;51.20;;;;;;946461;148;27334;-77
2023/10/13 14:53:10;;;;;;;3.90;3.10;;;29.30;51.30;;;;;;923377;152;27884;-76
2023/10/13 14:55:40;;;;;;;4.40;2.70;;;29.20;51.30;;;;;;943586;148;27301;-77
2023/10/13 14:58:12;;;;;;;4.12;3.02;;;29.20;51.30;;;;;;946326;148;27386;-76
2023/10/13 15:00:34;;;;;;;6.00;3.05;;;29.20;51.50;;;;;;943503;148;27418;-77
2023/10/13 15:03:06;;;;;;;3.92;2.85;;;29.10;51.40;;;;;;944736;150;27407;-76
2023/10/13 15:05:35;;;;;;;4.47;2.83;;;29.10;51.50;;;;;;943186;148;27448;-77
2023/10/13 15:07:55;;;;;;;3.83;2.80;;;29.10;51.70;;;;;;941530;148;27404;-76
2023/10/13 15:10:24;;;;;;;2.75;2.55;;;29.10;51.70;;;;;;922704;152;27506;-76
2023/10/13 15:12:51;;;;;;;3.95;2.72;;;29.10;51.70;;;;;;928600;151;27332;-77
2023/10/13 15:15:19;;;;;;;5.20;3.15;;;29.10;51.70;;;;;;926430;151;27454;-76
2023/10/13 15:17:44;;;;;;;7.05;2.75;;;29.10;51.70;;;;;;947463;147;27369;-76
2023/10/13 15:20:15;;;;;;;3.25;2.95;;;29.00;51.60;;;;;;950555;147;27347;-76
2023/10/13 15:22:38;;;;;;;3.98;3.45;;;29.00;51.40;;;;;;951027;147;27430;-76
2023/10/13 15:27:58;;;;;;;5.90;2.65;;;28.90;51.30;;;;;;951082;147;27977;-76
2023/10/13 15:30:23;;;;;;;4.42;3.15;;;28.80;51.40;;;;;;946863;147;27422;-76
2023/10/13 15:32:48;;;;;;;4.00;2.98;;;28.80;51.30;;;;;;946606;147;27327;-77
2023/10/13 15:35:15;;;;;;;5.03;2.80;;;28.70;51.40;;;;;;948640;147;27310;-76
2023/10/13 15:37:47;;;;;;;6.05;3.15;;;28.60;51.30;;;;;;950876;147;27266;-77
2023/10/13 15:40:15;;;;;;;3.85;2.80;;;28.50;51.30;;;;;;947817;147;27434;-76
2023/10/13 15:42:41;;;;;;;4.72;3.08;;;28.40;51.40;;;;;;952449;147;27490;-76
2023/10/13 15:45:01;;;;;;;5.62;3.22;;;28.30;51.40;;;;;;932751;150;27361;-76
2023/10/13 15:47:33;;;;;;;4.00;2.85;;;28.20;51.50;;;;;;945988;147;27453;-76
2023/10/13 15:49:55;;;;;;;3.60;2.95;;;28.10;51.50;;;;;;934220;149;27390;-76
2023/10/13 15:52:21;;;;;;;3.58;3.02;;;27.90;51.50;;;;;;931824;150;27306;-76
2023/10/13 15:54:47;;;;;;;5.83;3.55;;;27.80;51.50;;;;;;949468;147;27320;-76
2023/10/13 15:57:16;;;;;;;4.08;2.90;;;27.70;51.60;;;;;;950687;147;27422;-76
2023/10/13 15:59:41;;;;;;;4.80;2.52;;;27.60;51.70;;;;;;948488;147;27364;-76